Firwood, Washington
Current Conditions -  °F | °C
As of 1:23 AM on Sunday 26 Oct 2014 (Local Time) from KTCM Reporting Station
Broken Clouds Broken Clouds  
Wind Chill: 50°   Ceiling: 5000
Heat Index: 50°   Visibility: 10mi
Dew Point: 48°   Wind: 9mph
Humidity: 94%   Direction: 200°SSW
Pressure: 29.84"   Gusts: NA
Location:  47.1905°N, 122.328°W
Report Text: KTCM 260823Z AUTO 20008KT 10SM SCT033 BKN050 10/09 A2984 RMK AO2
Loading
Personal Weather Stations






























Interactive Weather Map
Tropical Storm Tracking
New forecast layout! Learn more

10-Day Weather Forecast

Advertisements
Track Severe Weather on mobile